Calgary, Canada
Current Conditions -  °F | °C
As of 2:00 AM on Saturday 25 Oct 2014 (Local Time) from CYYC Reporting Station
Broken Clouds Broken Clouds  
Wind Chill: 32°   Ceiling: 21000
Heat Index: 32°   Visibility: 15mi
Dew Point: 19°   Wind: 3mph
Humidity: 60%   Direction: 250°WSW
Pressure: 30.03"   Gusts: NA
Location:  51.05°N, 114.06°W
Report Text: CYYC 250800Z 25003KT 240V330 15SM BKN210 00/M07 A3003 RMK CI6 SLP200
Loading
Personal Weather Stations






























Interactive Weather Map
Tropical Storm Tracking
New forecast layout! Learn more

10-Day Weather Forecast

Advertisements
Track Severe Weather on mobile